sensor_id;sensor_type;location;lat;lon;timestamp;temperature;humidity
2453;DHT22;63678;47.994;7.854;2023-04-03T00:01:02;7.50;99.90
2453;DHT22;63678;47.994;7.854;2023-04-03T00:06:10;7.50;99.90
2453;DHT22;63678;47.994;7.854;2023-04-03T00:11:18;7.50;99.90
2453;DHT22;63678;47.994;7.854;2023-04-03T00:13:51;7.40;99.90
2453;DHT22;63678;47.994;7.854;2023-04-03T00:16:24;7.40;99.90
2453;DHT22;63678;47.994;7.854;2023-04-03T00:18:56;7.40;99.90
2453;DHT22;63678;47.994;7.854;2023-04-03T00:21:29;7.40;99.90
2453;DHT22;63678;47.994;7.854;2023-04-03T00:26:37;7.40;99.90
2453;DHT22;63678;47.994;7.854;2023-04-03T00:29:09;7.40;99.90
2453;DHT22;63678;47.994;7.854;2023-04-03T00:31:44;7.40;99.90
2453;DHT22;63678;47.994;7.854;2023-04-03T00:34:17;9.90;99.90
2453;DHT22;63678;47.994;7.854;2023-04-03T00:39:23;7.40;99.90
2453;DHT22;63678;47.994;7.854;2023-04-03T00:47:05;7.30;99.90
2453;DHT22;63678;47.994;7.854;2023-04-03T00:49:39;7.20;99.90
2453;DHT22;63678;47.994;7.854;2023-04-03T00:52:16;7.20;99.90
2453;DHT22;63678;47.994;7.854;2023-04-03T00:54:52;7.20;99.90
2453;DHT22;63678;47.994;7.854;2023-04-03T00:57:28;7.20;99.90
2453;DHT22;63678;47.994;7.854;2023-04-03T01:00:09;7.20;99.90
2453;DHT22;63678;47.994;7.854;2023-04-03T01:02:43;7.20;99.90
2453;DHT22;63678;47.994;7.854;2023-04-03T01:09:30;7.00;99.90
2453;DHT22;63678;47.994;7.854;2023-04-03T01:12:27;7.00;99.90
2453;DHT22;63678;47.994;7.854;2023-04-03T01:15:07;6.90;99.90
2453;DHT22;63678;47.994;7.854;2023-04-03T01:25:48;6.90;99.90
2453;DHT22;63678;47.994;7.854;2023-04-03T01:28:29;6.90;99.90
2453;DHT22;63678;47.994;7.854;2023-04-03T01:33:46;6.90;99.90
2453;DHT22;63678;47.994;7.854;2023-04-03T01:36:21;6.80;99.90
2453;DHT22;63678;47.994;7.854;2023-04-03T01:38:57;6.80;99.90
2453;DHT22;63678;47.994;7.854;2023-04-03T01:41:33;6.90;99.90
2453;DHT22;63678;47.994;7.854;2023-04-03T01:44:13;6.90;99.90
2453;DHT22;63678;47.994;7.854;2023-04-03T01:49:19;6.80;99.90
2453;DHT22;63678;47.994;7.854;2023-04-03T01:51:51;6.80;99.90
2453;DHT22;63678;47.994;7.854;2023-04-03T01:54:24;6.90;99.90
2453;DHT22;63678;47.994;7.854;2023-04-03T01:56:56;6.90;99.90
2453;DHT22;63678;47.994;7.854;2023-04-03T01:59:29;6.80;99.90
2453;DHT22;63678;47.994;7.854;2023-04-03T02:02:01;6.90;99.90
2453;DHT22;63678;47.994;7.854;2023-04-03T02:04:34;6.90;99.90
2453;DHT22;63678;47.994;7.854;2023-04-03T02:07:06;6.90;99.90
2453;DHT22;63678;47.994;7.854;2023-04-03T02:09:39;6.90;99.90
2453;DHT22;63678;47.994;7.854;2023-04-03T02:12:13;6.80;99.90
2453;DHT22;63678;47.994;7.854;2023-04-03T02:14:46;6.80;99.90
2453;DHT22;63678;47.994;7.854;2023-04-03T02:17:19;6.80;99.90
2453;DHT22;63678;47.994;7.854;2023-04-03T02:19:51;6.80;99.90
2453;DHT22;63678;47.994;7.854;2023-04-03T02:22:24;6.80;99.90
2453;DHT22;63678;47.994;7.854;2023-04-03T02:24:56;6.80;99.90
2453;DHT22;63678;47.994;7.854;2023-04-03T02:30:04;6.70;99.90
2453;DHT22;63678;47.994;7.854;2023-04-03T02:32:38;6.70;99.90
2453;DHT22;63678;47.994;7.854;2023-04-03T02:35:11;6.70;99.90
2453;DHT22;63678;47.994;7.854;2023-04-03T02:37:44;6.70;99.90
2453;DHT22;63678;47.994;7.854;2023-04-03T02:40:18;6.60;99.90
2453;DHT22;63678;47.994;7.854;2023-04-03T02:42:50;6.60;99.90
2453;DHT22;63678;47.994;7.854;2023-04-03T02:45:24;6.50;99.90
2453;DHT22;63678;47.994;7.854;2023-04-03T02:47:57;6.50;99.90
2453;DHT22;63678;47.994;7.854;2023-04-03T02:50:29;6.40;99.90
2453;DHT22;63678;47.994;7.854;2023-04-03T02:53:02;6.30;99.90
2453;DHT22;63678;47.994;7.854;2023-04-03T02:55:34;6.30;99.90
2453;DHT22;63678;47.994;7.854;2023-04-03T02:58:07;6.30;99.90
2453;DHT22;63678;47.994;7.854;2023-04-03T03:00:41;6.20;99.90
2453;DHT22;63678;47.994;7.854;2023-04-03T03:03:13;6.30;99.90
2453;DHT22;63678;47.994;7.854;2023-04-03T03:08:20;6.20;99.90
2453;DHT22;63678;47.994;7.854;2023-04-03T03:10:52;6.00;99.90
2453;DHT22;63678;47.994;7.854;2023-04-03T03:13:25;6.10;99.90
2453;DHT22;63678;47.994;7.854;2023-04-03T03:16:01;6.10;99.90
2453;DHT22;63678;47.994;7.854;2023-04-03T03:21:09;6.10;99.90
2453;DHT22;63678;47.994;7.854;2023-04-03T03:23:42;6.20;99.90
2453;DHT22;63678;47.994;7.854;2023-04-03T03:26:15;6.20;99.90
2453;DHT22;63678;47.994;7.854;2023-04-03T03:28:48;6.30;99.90
2453;DHT22;63678;47.994;7.854;2023-04-03T03:31:20;6.20;99.90
2453;DHT22;63678;47.994;7.854;2023-04-03T03:33:53;6.20;99.90
2453;DHT22;63678;47.994;7.854;2023-04-03T03:36:26;6.20;99.90
2453;DHT22;63678;47.994;7.854;2023-04-03T03:38:59;6.20;99.90
2453;DHT22;63678;47.994;7.854;2023-04-03T03:41:32;6.20;99.90
2453;DHT22;63678;47.994;7.854;2023-04-03T03:44:04;6.20;99.90
2453;DHT22;63678;47.994;7.854;2023-04-03T03:46:37;6.20;99.90
2453;DHT22;63678;47.994;7.854;2023-04-03T03:49:10;6.20;99.90
2453;DHT22;63678;47.994;7.854;2023-04-03T03:51:44;6.30;99.90
2453;DHT22;63678;47.994;7.854;2023-04-03T03:54:18;6.30;99.90
2453;DHT22;63678;47.994;7.854;2023-04-03T03:56:50;6.30;99.90
2453;DHT22;63678;47.994;7.854;2023-04-03T04:01:57;8.20;99.90
2453;DHT22;63678;47.994;7.854;2023-04-03T04:07:03;7.10;99.90
2453;DHT22;63678;47.994;7.854;2023-04-03T04:09:37;6.80;99.90
2453;DHT22;63678;47.994;7.854;2023-04-03T04:14:43;6.40;99.90
2453;DHT22;63678;47.994;7.854;2023-04-03T04:17:19;6.40;99.90
2453;DHT22;63678;47.994;7.854;2023-04-03T04:19:53;6.40;99.90
2453;DHT22;63678;47.994;7.854;2023-04-03T04:24:58;6.30;99.90
2453;DHT22;63678;47.994;7.854;2023-04-03T04:27:31;6.30;99.90
2453;DHT22;63678;47.994;7.854;2023-04-03T04:30:05;6.20;99.90
2453;DHT22;63678;47.994;7.854;2023-04-03T04:32:38;6.30;99.90
2453;DHT22;63678;47.994;7.854;2023-04-03T04:35:10;6.30;99.90
2453;DHT22;63678;47.994;7.854;2023-04-03T04:37:48;6.30;99.90
2453;DHT22;63678;47.994;7.854;2023-04-03T04:40:21;6.30;99.90
2453;DHT22;63678;47.994;7.854;2023-04-03T04:42:53;6.30;99.90
2453;DHT22;63678;47.994;7.854;2023-04-03T04:45:25;6.20;99.90
2453;DHT22;63678;47.994;7.854;2023-04-03T04:48:22;6.10;99.90
2453;DHT22;63678;47.994;7.854;2023-04-03T04:50:55;6.20;99.90
2453;DHT22;63678;47.994;7.854;2023-04-03T04:56:02;6.20;99.90
2453;DHT22;63678;47.994;7.854;2023-04-03T05:01:30;6.20;99.90
2453;DHT22;63678;47.994;7.854;2023-04-03T05:04:11;6.10;99.90
2453;DHT22;63678;47.994;7.854;2023-04-03T05:09:23;6.20;99.90
2453;DHT22;63678;47.994;7.854;2023-04-03T05:11:57;6.20;99.90
2453;DHT22;63678;47.994;7.854;2023-04-03T05:17:10;6.20;99.90
2453;DHT22;63678;47.994;7.854;2023-04-03T05:22:20;6.30;99.90
2453;DHT22;63678;47.994;7.854;2023-04-03T05:27:28;6.40;99.90
2453;DHT22;63678;47.994;7.854;2023-04-03T05:30:03;6.40;99.90
2453;DHT22;63678;47.994;7.854;2023-04-03T05:32:38;6.40;99.90
2453;DHT22;63678;47.994;7.854;2023-04-03T05:35:21;6.40;99.90
2453;DHT22;63678;47.994;7.854;2023-04-03T05:37:57;6.40;99.90
2453;DHT22;63678;47.994;7.854;2023-04-03T05:43:03;6.40;99.90
2453;DHT22;63678;47.994;7.854;2023-04-03T05:45:39;6.40;99.90
2453;DHT22;63678;47.994;7.854;2023-04-03T05:48:11;6.30;99.90
2453;DHT22;63678;47.994;7.854;2023-04-03T05:50:46;6.30;99.90
2453;DHT22;63678;47.994;7.854;2023-04-03T05:53:30;6.30;99.90
2453;DHT22;63678;47.994;7.854;2023-04-03T05:56:07;6.30;99.90
2453;DHT22;63678;47.994;7.854;2023-04-03T05:58:43;6.30;99.90
2453;DHT22;63678;47.994;7.854;2023-04-03T06:06:22;6.40;99.90
2453;DHT22;63678;47.994;7.854;2023-04-03T06:08:56;6.50;99.90
2453;DHT22;63678;47.994;7.854;2023-04-03T06:11:29;6.50;99.90
2453;DHT22;63678;47.994;7.854;2023-04-03T06:14:20;6.60;99.90
2453;DHT22;63678;47.994;7.854;2023-04-03T06:16:55;6.60;99.90
2453;DHT22;63678;47.994;7.854;2023-04-03T06:19:28;6.60;99.90
2453;DHT22;63678;47.994;7.854;2023-04-03T06:22:02;6.80;99.90
2453;DHT22;63678;47.994;7.854;2023-04-03T06:27:30;6.90;99.90
2453;DHT22;63678;47.994;7.854;2023-04-03T06:32:37;9.80;99.90
2453;DHT22;63678;47.994;7.854;2023-04-03T06:35:10;9.60;99.90
2453;DHT22;63678;47.994;7.854;2023-04-03T06:37:44;9.20;99.90
2453;DHT22;63678;47.994;7.854;2023-04-03T06:40:21;8.10;99.90
2453;DHT22;63678;47.994;7.854;2023-04-03T06:42:55;7.70;99.90
2453;DHT22;63678;47.994;7.854;2023-04-03T06:45:27;7.70;99.90
2453;DHT22;63678;47.994;7.854;2023-04-03T06:48:00;7.50;99.90
2453;DHT22;63678;47.994;7.854;2023-04-03T06:53:05;7.60;99.90
2453;DHT22;63678;47.994;7.854;2023-04-03T06:55:38;7.70;99.90
2453;DHT22;63678;47.994;7.854;2023-04-03T07:01:06;7.70;99.90
2453;DHT22;63678;47.994;7.854;2023-04-03T07:03:40;7.70;99.90
2453;DHT22;63678;47.994;7.854;2023-04-03T07:06:15;7.60;99.90
2453;DHT22;63678;47.994;7.854;2023-04-03T07:08:50;7.70;99.90
2453;DHT22;63678;47.994;7.854;2023-04-03T07:11:24;7.80;99.90
2453;DHT22;63678;47.994;7.854;2023-04-03T07:13:57;7.90;99.90
2453;DHT22;63678;47.994;7.854;2023-04-03T07:16:29;8.10;99.90
2453;DHT22;63678;47.994;7.854;2023-04-03T07:19:03;8.00;99.90
2453;DHT22;63678;47.994;7.854;2023-04-03T07:24:30;7.90;99.90
2453;DHT22;63678;47.994;7.854;2023-04-03T07:32:10;8.00;99.90
2453;DHT22;63678;47.994;7.854;2023-04-03T07:35:03;8.20;99.90
2453;DHT22;63678;47.994;7.854;2023-04-03T07:37:36;8.20;99.90
2453;DHT22;63678;47.994;7.854;2023-04-03T07:40:09;8.30;99.90
2453;DHT22;63678;47.994;7.854;2023-04-03T07:42:43;8.40;99.90
2453;DHT22;63678;47.994;7.854;2023-04-03T07:45:16;8.50;99.90
2453;DHT22;63678;47.994;7.854;2023-04-03T07:53:00;8.70;99.90
2453;DHT22;63678;47.994;7.854;2023-04-03T07:55:32;8.90;99.90
2453;DHT22;63678;47.994;7.854;2023-04-03T07:58:07;9.00;99.90
2453;DHT22;63678;47.994;7.854;2023-04-03T08:00:39;8.90;99.90
2453;DHT22;63678;47.994;7.854;2023-04-03T08:03:13;9.00;99.90
2453;DHT22;63678;47.994;7.854;2023-04-03T08:05:48;9.30;99.90
2453;DHT22;63678;47.994;7.854;2023-04-03T08:08:22;9.60;99.90
2453;DHT22;63678;47.994;7.854;2023-04-03T08:10:55;9.80;99.90
2453;DHT22;63678;47.994;7.854;2023-04-03T08:13:46;9.80;99.90
2453;DHT22;63678;47.994;7.854;2023-04-03T08:16:21;10.00;99.90
2453;DHT22;63678;47.994;7.854;2023-04-03T08:19:16;10.20;99.90
2453;DHT22;63678;47.994;7.854;2023-04-03T08:21:57;10.50;99.90
2453;DHT22;63678;47.994;7.854;2023-04-03T08:24:31;10.30;99.90
2453;DHT22;63678;47.994;7.854;2023-04-03T08:27:09;10.10;99.90
2453;DHT22;63678;47.994;7.854;2023-04-03T08:29:42;10.30;99.90
2453;DHT22;63678;47.994;7.854;2023-04-03T08:32:14;10.10;99.90
2453;DHT22;63678;47.994;7.854;2023-04-03T08:34:47;10.10;99.90
2453;DHT22;63678;47.994;7.854;2023-04-03T08:37:19;10.50;99.90
2453;DHT22;63678;47.994;7.854;2023-04-03T08:46:11;10.40;99.90
2453;DHT22;63678;47.994;7.854;2023-04-03T08:48:49;11.10;99.90
2453;DHT22;63678;47.994;7.854;2023-04-03T08:51:23;10.90;99.90
2453;DHT22;63678;47.994;7.854;2023-04-03T08:54:01;11.50;99.90
2453;DHT22;63678;47.994;7.854;2023-04-03T08:56:36;11.80;99.90
2453;DHT22;63678;47.994;7.854;2023-04-03T08:59:33;11.10;99.90
2453;DHT22;63678;47.994;7.854;2023-04-03T09:02:28;11.00;99.90
2453;DHT22;63678;47.994;7.854;2023-04-03T09:08:51;11.50;99.90
2453;DHT22;63678;47.994;7.854;2023-04-03T09:14:43;12.10;99.90
2453;DHT22;63678;47.994;7.854;2023-04-03T09:20:30;12.50;99.90
2453;DHT22;63678;47.994;7.854;2023-04-03T09:23:24;13.20;99.90
2453;DHT22;63678;47.994;7.854;2023-04-03T09:26:15;13.30;99.90
2453;DHT22;63678;47.994;7.854;2023-04-03T09:31:28;13.70;99.30
2453;DHT22;63678;47.994;7.854;2023-04-03T09:34:06;13.80;99.20
2453;DHT22;63678;47.994;7.854;2023-04-03T09:39:28;13.80;97.80
2453;DHT22;63678;47.994;7.854;2023-04-03T09:42:11;14.10;97.40
2453;DHT22;63678;47.994;7.854;2023-04-03T09:44:57;14.00;96.30
2453;DHT22;63678;47.994;7.854;2023-04-03T09:47:35;13.80;96.20
2453;DHT22;63678;47.994;7.854;2023-04-03T09:50:20;13.70;95.90
2453;DHT22;63678;47.994;7.854;2023-04-03T09:52:53;13.20;95.20
2453;DHT22;63678;47.994;7.854;2023-04-03T09:55:27;13.00;95.30
2453;DHT22;63678;47.994;7.854;2023-04-03T09:58:04;12.50;95.70
2453;DHT22;63678;47.994;7.854;2023-04-03T10:00:40;11.70;96.30
2453;DHT22;63678;47.994;7.854;2023-04-03T10:03:31;11.20;97.10
2453;DHT22;63678;47.994;7.854;2023-04-03T10:06:23;10.50;97.60
2453;DHT22;63678;47.994;7.854;2023-04-03T10:09:01;10.50;98.40
2453;DHT22;63678;47.994;7.854;2023-04-03T10:11:37;10.80;98.30
2453;DHT22;63678;47.994;7.854;2023-04-03T10:14:16;10.90;98.50
2453;DHT22;63678;47.994;7.854;2023-04-03T10:16:59;10.60;98.70
2453;DHT22;63678;47.994;7.854;2023-04-03T10:22:54;10.60;98.90
2453;DHT22;63678;47.994;7.854;2023-04-03T10:25:40;10.70;98.70
2453;DHT22;63678;47.994;7.854;2023-04-03T10:28:35;10.90;98.60
2453;DHT22;63678;47.994;7.854;2023-04-03T10:31:46;10.80;98.20
2453;DHT22;63678;47.994;7.854;2023-04-03T10:34:44;10.70;98.50
2453;DHT22;63678;47.994;7.854;2023-04-03T10:37:53;10.40;98.30
2453;DHT22;63678;47.994;7.854;2023-04-03T10:40:36;9.90;99.20
2453;DHT22;63678;47.994;7.854;2023-04-03T10:43:33;9.80;98.90
2453;DHT22;63678;47.994;7.854;2023-04-03T10:46:19;9.90;99.50
2453;DHT22;63678;47.994;7.854;2023-04-03T10:51:43;9.70;99.90
2453;DHT22;63678;47.994;7.854;2023-04-03T10:54:29;9.60;99.80
2453;DHT22;63678;47.994;7.854;2023-04-03T10:57:08;9.80;99.90
2453;DHT22;63678;47.994;7.854;2023-04-03T11:00:03;9.70;99.90
2453;DHT22;63678;47.994;7.854;2023-04-03T11:02:55;9.40;99.80
2453;DHT22;63678;47.994;7.854;2023-04-03T11:05:39;8.90;99.90
2453;DHT22;63678;47.994;7.854;2023-04-03T11:08:27;9.30;99.90
2453;DHT22;63678;47.994;7.854;2023-04-03T11:11:24;9.60;99.90
2453;DHT22;63678;47.994;7.854;2023-04-03T11:16:45;10.00;99.90
2453;DHT22;63678;47.994;7.854;2023-04-03T11:22:33;10.10;99.10
2453;DHT22;63678;47.994;7.854;2023-04-03T11:27:56;10.50;99.60
2453;DHT22;63678;47.994;7.854;2023-04-03T11:30:36;10.40;99.30
2453;DHT22;63678;47.994;7.854;2023-04-03T11:36:18;10.20;99.40
2453;DHT22;63678;47.994;7.854;2023-04-03T11:42:24;10.50;99.70
2453;DHT22;63678;47.994;7.854;2023-04-03T11:50:48;9.90;99.90
2453;DHT22;63678;47.994;7.854;2023-04-03T11:53:30;10.00;99.90
2453;DHT22;63678;47.994;7.854;2023-04-03T12:01:51;12.00;98.40
2453;DHT22;63678;47.994;7.854;2023-04-03T12:04:27;11.80;97.70
2453;DHT22;63678;47.994;7.854;2023-04-03T12:07:25;11.60;98.20
2453;DHT22;63678;47.994;7.854;2023-04-03T12:09:57;11.30;98.20
2453;DHT22;63678;47.994;7.854;2023-04-03T12:12:36;10.60;98.90
2453;DHT22;63678;47.994;7.854;2023-04-03T12:16:18;10.90;99.10
2453;DHT22;63678;47.994;7.854;2023-04-03T12:24:32;10.60;99.30
2453;DHT22;63678;47.994;7.854;2023-04-03T12:27:14;10.30;99.60
2453;DHT22;63678;47.994;7.854;2023-04-03T12:30:05;10.00;99.90
2453;DHT22;63678;47.994;7.854;2023-04-03T12:33:04;9.90;99.90
2453;DHT22;63678;47.994;7.854;2023-04-03T12:36:08;9.90;99.90
2453;DHT22;63678;47.994;7.854;2023-04-03T12:47:36;10.30;99.20
2453;DHT22;63678;47.994;7.854;2023-04-03T12:50:27;10.50;98.80
2453;DHT22;63678;47.994;7.854;2023-04-03T12:53:11;10.40;99.20
2453;DHT22;63678;47.994;7.854;2023-04-03T12:58:23;10.50;99.40
2453;DHT22;63678;47.994;7.854;2023-04-03T13:01:23;10.40;99.20
2453;DHT22;63678;47.994;7.854;2023-04-03T13:03:57;10.40;99.40
2453;DHT22;63678;47.994;7.854;2023-04-03T13:06:39;10.40;99.70
2453;DHT22;63678;47.994;7.854;2023-04-03T13:09:28;10.20;99.70
2453;DHT22;63678;47.994;7.854;2023-04-03T13:12:12;10.20;99.80
2453;DHT22;63678;47.994;7.854;2023-04-03T13:14:57;10.30;99.30
2453;DHT22;63678;47.994;7.854;2023-04-03T13:23:05;10.10;98.80
2453;DHT22;63678;47.994;7.854;2023-04-03T13:25:43;10.00;99.10
2453;DHT22;63678;47.994;7.854;2023-04-03T13:28:23;10.00;99.30
2453;DHT22;63678;47.994;7.854;2023-04-03T13:33:37;10.40;98.40
2453;DHT22;63678;47.994;7.854;2023-04-03T13:36:19;11.50;99.00
2453;DHT22;63678;47.994;7.854;2023-04-03T13:39:05;10.20;99.00
2453;DHT22;63678;47.994;7.854;2023-04-03T13:41:54;9.90;99.20
2453;DHT22;63678;47.994;7.854;2023-04-03T13:44:34;9.90;99.50
2453;DHT22;63678;47.994;7.854;2023-04-03T13:49:45;10.20;99.30
2453;DHT22;63678;47.994;7.854;2023-04-03T13:52:41;10.10;98.70
2453;DHT22;63678;47.994;7.854;2023-04-03T13:55:28;10.10;99.00
2453;DHT22;63678;47.994;7.854;2023-04-03T13:58:21;12.20;99.40
2453;DHT22;63678;47.994;7.854;2023-04-03T14:00:56;9.90;98.90
2453;DHT22;63678;47.994;7.854;2023-04-03T14:06:24;10.10;98.40
2453;DHT22;63678;47.994;7.854;2023-04-03T14:11:33;9.90;99.10
2453;DHT22;63678;47.994;7.854;2023-04-03T14:14:13;10.70;99.40
2453;DHT22;63678;47.994;7.854;2023-04-03T14:16:58;9.90;99.60
2453;DHT22;63678;47.994;7.854;2023-04-03T14:19:34;10.00;99.30
2453;DHT22;63678;47.994;7.854;2023-04-03T14:22:28;9.80;99.10
2453;DHT22;63678;47.994;7.854;2023-04-03T14:27:39;9.70;99.60
2453;DHT22;63678;47.994;7.854;2023-04-03T14:32:54;9.60;99.90
2453;DHT22;63678;47.994;7.854;2023-04-03T14:35:27;9.60;99.90
2453;DHT22;63678;47.994;7.854;2023-04-03T14:38:00;9.70;99.70
2453;DHT22;63678;47.994;7.854;2023-04-03T14:40:32;9.70;99.50
2453;DHT22;63678;47.994;7.854;2023-04-03T14:43:05;9.60;99.00
2453;DHT22;63678;47.994;7.854;2023-04-03T14:45:38;9.40;99.20
2453;DHT22;63678;47.994;7.854;2023-04-03T14:48:19;9.40;99.70
2453;DHT22;63678;47.994;7.854;2023-04-03T14:53:37;9.30;99.90
2453;DHT22;63678;47.994;7.854;2023-04-03T14:56:13;9.30;99.70
2453;DHT22;63678;47.994;7.854;2023-04-03T15:01:22;9.40;99.60
2453;DHT22;63678;47.994;7.854;2023-04-03T15:03:55;9.40;99.90
2453;DHT22;63678;47.994;7.854;2023-04-03T15:06:27;9.30;99.90
2453;DHT22;63678;47.994;7.854;2023-04-03T15:09:00;9.30;99.80
2453;DHT22;63678;47.994;7.854;2023-04-03T15:11:32;9.20;99.60
2453;DHT22;63678;47.994;7.854;2023-04-03T15:19:09;9.30;99.20
2453;DHT22;63678;47.994;7.854;2023-04-03T15:26:48;9.30;99.60
2453;DHT22;63678;47.994;7.854;2023-04-03T15:29:20;9.40;99.80
2453;DHT22;63678;47.994;7.854;2023-04-03T15:36:58;9.50;98.80
2453;DHT22;63678;47.994;7.854;2023-04-03T15:42:03;9.30;98.50
2453;DHT22;63678;47.994;7.854;2023-04-03T15:44:39;9.30;98.70
2453;DHT22;63678;47.994;7.854;2023-04-03T15:52:17;9.10;99.40
2453;DHT22;63678;47.994;7.854;2023-04-03T15:54:49;9.00;99.20
2453;DHT22;63678;47.994;7.854;2023-04-03T15:59:58;8.90;97.90
2453;DHT22;63678;47.994;7.854;2023-04-03T16:02:30;8.90;98.50
2453;DHT22;63678;47.994;7.854;2023-04-03T16:05:03;8.90;98.30
2453;DHT22;63678;47.994;7.854;2023-04-03T16:07:37;8.90;98.50
2453;DHT22;63678;47.994;7.854;2023-04-03T16:10:16;8.80;98.60
2453;DHT22;63678;47.994;7.854;2023-04-03T16:12:49;8.90;98.80
2453;DHT22;63678;47.994;7.854;2023-04-03T16:15:22;8.80;98.80
2453;DHT22;63678;47.994;7.854;2023-04-03T16:17:54;8.70;98.30
2453;DHT22;63678;47.994;7.854;2023-04-03T16:20:27;8.60;98.40
2453;DHT22;63678;47.994;7.854;2023-04-03T16:25:33;8.60;98.50
2453;DHT22;63678;47.994;7.854;2023-04-03T16:28:05;8.70;98.30
2453;DHT22;63678;47.994;7.854;2023-04-03T16:30:42;8.60;97.90
2453;DHT22;63678;47.994;7.854;2023-04-03T16:33:15;8.60;98.00
2453;DHT22;63678;47.994;7.854;2023-04-03T16:35:48;8.50;98.50
2453;DHT22;63678;47.994;7.854;2023-04-03T16:38:21;8.60;98.50
2453;DHT22;63678;47.994;7.854;2023-04-03T16:40:54;8.60;98.30
2453;DHT22;63678;47.994;7.854;2023-04-03T16:43:28;8.50;98.10
2453;DHT22;63678;47.994;7.854;2023-04-03T16:46:01;8.50;98.70
2453;DHT22;63678;47.994;7.854;2023-04-03T16:48:34;8.40;97.80
2453;DHT22;63678;47.994;7.854;2023-04-03T16:51:07;8.30;98.10
2453;DHT22;63678;47.994;7.854;2023-04-03T16:53:39;8.30;98.30
2453;DHT22;63678;47.994;7.854;2023-04-03T16:58:44;8.40;98.10
2453;DHT22;63678;47.994;7.854;2023-04-03T17:01:36;8.40;97.90
2453;DHT22;63678;47.994;7.854;2023-04-03T17:04:08;8.30;98.10
2453;DHT22;63678;47.994;7.854;2023-04-03T17:06:40;8.40;98.00
2453;DHT22;63678;47.994;7.854;2023-04-03T17:11:45;8.20;98.70
2453;DHT22;63678;47.994;7.854;2023-04-03T17:14:20;8.30;98.50
2453;DHT22;63678;47.994;7.854;2023-04-03T17:19:25;8.30;98.40
2453;DHT22;63678;47.994;7.854;2023-04-03T17:22:19;8.10;98.70
2453;DHT22;63678;47.994;7.854;2023-04-03T17:24:52;8.00;99.50
2453;DHT22;63678;47.994;7.854;2023-04-03T17:29:58;8.00;99.90
2453;DHT22;63678;47.994;7.854;2023-04-03T17:32:30;8.00;99.80
2453;DHT22;63678;47.994;7.854;2023-04-03T17:35:04;8.00;99.30
2453;DHT22;63678;47.994;7.854;2023-04-03T17:40:09;8.00;99.90
2453;DHT22;63678;47.994;7.854;2023-04-03T17:45:17;7.80;99.90
2453;DHT22;63678;47.994;7.854;2023-04-03T17:47:53;7.70;99.90
2453;DHT22;63678;47.994;7.854;2023-04-03T17:50:25;7.70;99.90
2453;DHT22;63678;47.994;7.854;2023-04-03T17:52:57;7.60;99.70
2453;DHT22;63678;47.994;7.854;2023-04-03T17:55:29;7.70;99.70
2453;DHT22;63678;47.994;7.854;2023-04-03T17:58:02;7.60;99.90
2453;DHT22;63678;47.994;7.854;2023-04-03T18:00:35;7.70;99.90
2453;DHT22;63678;47.994;7.854;2023-04-03T18:03:08;7.70;99.90
2453;DHT22;63678;47.994;7.854;2023-04-03T18:05:40;7.80;99.90
2453;DHT22;63678;47.994;7.854;2023-04-03T18:08:12;7.70;99.80
2453;DHT22;63678;47.994;7.854;2023-04-03T18:10:44;7.70;99.90
2453;DHT22;63678;47.994;7.854;2023-04-03T18:13:17;7.60;99.90
2453;DHT22;63678;47.994;7.854;2023-04-03T18:15:49;7.60;99.90
2453;DHT22;63678;47.994;7.854;2023-04-03T18:18:22;7.60;99.90
2453;DHT22;63678;47.994;7.854;2023-04-03T18:23:29;7.60;99.30
2453;DHT22;63678;47.994;7.854;2023-04-03T18:26:06;7.50;99.90
2453;DHT22;63678;47.994;7.854;2023-04-03T18:28:43;7.40;99.90
2453;DHT22;63678;47.994;7.854;2023-04-03T18:33:50;7.10;99.90
2453;DHT22;63678;47.994;7.854;2023-04-03T18:36:26;7.00;99.90
2453;DHT22;63678;47.994;7.854;2023-04-03T18:38:59;7.00;99.90
2453;DHT22;63678;47.994;7.854;2023-04-03T18:41:32;8.70;99.90
2453;DHT22;63678;47.994;7.854;2023-04-03T18:44:10;8.30;99.90
2453;DHT22;63678;47.994;7.854;2023-04-03T18:46:44;7.80;99.90
2453;DHT22;63678;47.994;7.854;2023-04-03T18:49:17;7.50;99.90
2453;DHT22;63678;47.994;7.854;2023-04-03T18:51:49;7.30;99.90
2453;DHT22;63678;47.994;7.854;2023-04-03T18:54:21;7.10;99.90
2453;DHT22;63678;47.994;7.854;2023-04-03T18:59:26;7.10;99.90
2453;DHT22;63678;47.994;7.854;2023-04-03T19:01:58;7.00;99.90
2453;DHT22;63678;47.994;7.854;2023-04-03T19:04:31;7.00;99.90
2453;DHT22;63678;47.994;7.854;2023-04-03T19:07:04;6.90;99.90
2453;DHT22;63678;47.994;7.854;2023-04-03T19:09:37;6.80;99.90
2453;DHT22;63678;47.994;7.854;2023-04-03T19:12:10;6.80;99.90
2453;DHT22;63678;47.994;7.854;2023-04-03T19:14:42;6.50;99.90
2453;DHT22;63678;47.994;7.854;2023-04-03T19:19:47;6.40;99.90
2453;DHT22;63678;47.994;7.854;2023-04-03T19:22:20;6.30;99.90
2453;DHT22;63678;47.994;7.854;2023-04-03T19:24:52;6.20;99.90
2453;DHT22;63678;47.994;7.854;2023-04-03T19:29:57;6.00;99.90
2453;DHT22;63678;47.994;7.854;2023-04-03T19:32:29;6.00;99.90
2453;DHT22;63678;47.994;7.854;2023-04-03T19:35:01;5.90;99.90
2453;DHT22;63678;47.994;7.854;2023-04-03T19:37:33;5.90;99.90
2453;DHT22;63678;47.994;7.854;2023-04-03T19:40:06;6.00;99.90
2453;DHT22;63678;47.994;7.854;2023-04-03T19:42:39;6.00;99.90
2453;DHT22;63678;47.994;7.854;2023-04-03T19:45:13;5.90;99.90
2453;DHT22;63678;47.994;7.854;2023-04-03T19:47:47;5.80;99.90
2453;DHT22;63678;47.994;7.854;2023-04-03T19:50:20;5.60;99.90
2453;DHT22;63678;47.994;7.854;2023-04-03T19:55:24;5.50;99.90
2453;DHT22;63678;47.994;7.854;2023-04-03T19:58:02;5.50;99.90
2453;DHT22;63678;47.994;7.854;2023-04-03T20:00:34;5.60;99.90
2453;DHT22;63678;47.994;7.854;2023-04-03T20:03:07;5.60;99.90
2453;DHT22;63678;47.994;7.854;2023-04-03T20:05:39;5.60;99.90
2453;DHT22;63678;47.994;7.854;2023-04-03T20:08:11;5.60;99.90
2453;DHT22;63678;47.994;7.854;2023-04-03T20:10:43;5.50;99.90
2453;DHT22;63678;47.994;7.854;2023-04-03T20:13:15;5.50;99.90
2453;DHT22;63678;47.994;7.854;2023-04-03T20:15:47;5.40;99.90
2453;DHT22;63678;47.994;7.854;2023-04-03T20:20:58;5.30;99.90
2453;DHT22;63678;47.994;7.854;2023-04-03T20:23:33;5.30;99.90
2453;DHT22;63678;47.994;7.854;2023-04-03T20:26:07;5.30;99.90
2453;DHT22;63678;47.994;7.854;2023-04-03T20:28:46;5.60;99.90
2453;DHT22;63678;47.994;7.854;2023-04-03T20:31:20;5.50;99.90
2453;DHT22;63678;47.994;7.854;2023-04-03T20:33:53;5.40;99.90
2453;DHT22;63678;47.994;7.854;2023-04-03T20:36:25;5.30;99.90
2453;DHT22;63678;47.994;7.854;2023-04-03T20:38:59;6.50;99.90
2453;DHT22;63678;47.994;7.854;2023-04-03T20:41:31;5.20;99.90
2453;DHT22;63678;47.994;7.854;2023-04-03T20:44:06;5.10;99.90
2453;DHT22;63678;47.994;7.854;2023-04-03T20:46:38;5.00;99.90
2453;DHT22;63678;47.994;7.854;2023-04-03T20:49:23;5.00;99.90
2453;DHT22;63678;47.994;7.854;2023-04-03T20:51:56;5.10;99.90
2453;DHT22;63678;47.994;7.854;2023-04-03T20:54:29;5.10;99.90
2453;DHT22;63678;47.994;7.854;2023-04-03T20:57:01;5.00;99.90
2453;DHT22;63678;47.994;7.854;2023-04-03T20:59:33;4.90;99.90
2453;DHT22;63678;47.994;7.854;2023-04-03T21:02:06;4.80;99.90
2453;DHT22;63678;47.994;7.854;2023-04-03T21:04:44;4.80;99.90
2453;DHT22;63678;47.994;7.854;2023-04-03T21:20:39;4.50;99.90
2453;DHT22;63678;47.994;7.854;2023-04-03T21:23:11;4.50;99.90
2453;DHT22;63678;47.994;7.854;2023-04-03T21:28:16;4.30;99.90
2453;DHT22;63678;47.994;7.854;2023-04-03T21:30:50;4.30;99.90